createdAt,value
2018-04-19T00:02:07.290Z,25.83
2018-04-19T00:04:35.538Z,24.73
2018-04-19T00:07:03.616Z,24.60
2018-04-19T00:09:31.726Z,25.97
2018-04-19T00:11:59.851Z,25.23
2018-04-19T00:14:27.946Z,24.50
2018-04-19T00:16:56.049Z,24.53
2018-04-19T00:19:24.146Z,25.40
2018-04-19T00:21:52.245Z,24.97
2018-04-19T00:34:05.343Z,24.80
2018-04-19T00:36:34.770Z,24.90
2018-04-19T00:39:02.862Z,26.20
2018-04-19T00:41:30.960Z,26.77
2018-04-19T00:43:59.123Z,26.37
2018-04-19T00:46:27.515Z,25.67
2018-04-19T00:48:55.583Z,28.57
2018-04-19T00:51:23.680Z,25.40
2018-04-19T00:53:51.795Z,24.97
2018-04-19T00:56:19.891Z,26.77
2018-04-19T00:58:47.982Z,27.20
2018-04-19T01:01:16.352Z,26.40
2018-04-19T01:13:29.457Z,25.33
2018-04-19T01:15:57.601Z,26.77
2018-04-19T01:18:25.675Z,26.57
2018-04-19T01:20:53.803Z,25.83
2018-04-19T01:23:22.755Z,26.83
2018-04-19T01:25:50.876Z,26.07
2018-04-19T01:28:18.990Z,26.03
2018-04-19T01:30:47.095Z,27.20
2018-04-19T01:33:16.105Z,27.63
2018-04-19T01:35:56.027Z,26.40
2018-04-19T01:38:24.135Z,26.80
2018-04-19T01:40:52.266Z,26.20
2018-04-19T01:43:20.425Z,25.70
2018-04-19T01:45:48.521Z,26.83
2018-04-19T01:48:16.643Z,27.13
2018-04-19T01:50:44.744Z,26.27
2018-04-19T01:53:12.828Z,26.23
2018-04-19T01:55:40.919Z,26.60
2018-04-19T01:58:09.315Z,25.80
2018-04-19T02:00:37.411Z,27.10
2018-04-19T02:03:05.513Z,27.70
2018-04-19T02:05:36.087Z,28.07
2018-04-19T02:08:04.532Z,27.27
2018-04-19T02:10:32.604Z,29.47
2018-04-19T02:13:00.715Z,28.53
2018-04-19T02:15:28.803Z,27.03
2018-04-19T02:17:57.259Z,26.20
2018-04-19T02:20:25.362Z,26.90
2018-04-19T02:22:53.451Z,28.30
2018-04-19T02:25:21.906Z,27.33
2018-04-19T02:27:50.359Z,26.87
2018-04-19T02:30:18.478Z,28.63
2018-04-19T02:32:46.583Z,26.30
2018-04-19T02:35:14.676Z,26.60
2018-04-19T02:37:42.779Z,27.70
2018-04-19T02:40:10.871Z,26.70
2018-04-19T02:42:39.295Z,26.67
2018-04-19T02:45:07.391Z,28.63
2018-04-19T02:47:35.507Z,27.07
2018-04-19T02:50:03.624Z,27.03
2018-04-19T02:52:31.722Z,27.73
2018-04-19T02:54:59.816Z,27.17
2018-04-19T02:57:27.912Z,26.23
2018-04-19T02:59:56.012Z,25.73
2018-04-19T03:02:24.124Z,26.43
2018-04-19T03:04:52.247Z,28.03
2018-04-19T03:07:20.348Z,26.63
2018-04-19T03:09:48.457Z,25.73
2018-04-19T03:12:16.570Z,24.77
2018-04-19T03:14:44.659Z,27.97
2018-04-19T03:17:12.766Z,25.97
2018-04-19T03:19:40.850Z,25.33
2018-04-19T03:22:08.939Z,26.97
2018-04-19T03:24:37.055Z,25.27
2018-04-19T03:27:05.176Z,26.93
2018-04-19T03:29:33.251Z,25.53
2018-04-19T03:32:02.384Z,26.13
2018-04-19T03:34:30.471Z,24.67
2018-04-19T03:36:59.215Z,27.00
2018-04-19T03:39:27.327Z,26.97
2018-04-19T03:41:55.415Z,28.10
2018-04-19T03:44:23.503Z,26.30
2018-04-19T03:46:51.624Z,26.60
2018-04-19T03:49:19.711Z,25.57
2018-04-19T03:51:48.139Z,25.97
2018-04-19T03:54:16.563Z,27.63
2018-04-19T03:56:44.669Z,26.63
2018-04-19T03:59:12.749Z,26.70
2018-04-19T04:01:40.843Z,28.67
2018-04-19T04:04:08.927Z,27.40
2018-04-19T04:06:37.363Z,25.17
2018-04-19T04:09:05.483Z,25.93
2018-04-19T04:11:33.611Z,25.17
2018-04-19T04:14:01.731Z,26.97
2018-04-19T04:16:41.678Z,27.37
2018-04-19T04:19:21.679Z,25.43
2018-04-19T04:22:01.700Z,25.63
2018-04-19T04:24:29.803Z,26.23
2018-04-19T04:26:58.703Z,26.53
2018-04-19T04:29:26.789Z,25.63
2018-04-19T04:31:56.489Z,25.43
2018-04-19T04:34:26.277Z,24.93
2018-04-19T04:36:54.387Z,26.60
2018-04-19T04:52:27.735Z,25.80
2018-04-19T04:54:56.255Z,24.53
2018-04-19T04:57:24.345Z,24.87
2018-04-19T04:59:52.455Z,25.97
2018-04-19T05:02:20.552Z,24.67
2018-04-19T05:04:48.647Z,25.53
2018-04-19T05:07:17.383Z,26.47
2018-04-19T05:09:45.477Z,24.97
2018-04-19T05:12:13.621Z,25.10
2018-04-19T05:14:41.715Z,23.90
2018-04-19T05:17:09.811Z,24.50
2018-04-19T05:19:37.915Z,25.57
2018-04-19T05:22:06.611Z,24.97
2018-04-19T05:24:34.723Z,23.97
2018-04-19T05:27:02.899Z,24.33
2018-04-19T05:29:31.077Z,25.30
2018-04-19T05:31:59.167Z,24.67
2018-04-19T05:34:27.923Z,25.47
2018-04-19T05:36:56.664Z,25.80
2018-04-19T05:39:25.244Z,24.07
2018-04-19T05:41:53.726Z,26.23
2018-04-19T05:44:21.831Z,25.40
2018-04-19T05:46:49.925Z,25.33
2018-04-19T05:49:18.393Z,26.67
2018-04-19T05:51:46.464Z,25.33
2018-04-19T05:54:14.555Z,26.87
2018-04-19T06:06:28.561Z,25.30
2018-04-19T06:08:56.663Z,25.00
2018-04-19T06:11:24.779Z,24.97
2018-04-19T06:13:52.895Z,25.63
2018-04-19T06:16:21.013Z,24.97
2018-04-19T06:18:49.090Z,25.63
2018-04-19T06:21:17.207Z,25.07
2018-04-19T06:23:45.303Z,23.37
2018-04-19T06:26:13.406Z,25.10
2018-04-19T06:28:42.384Z,25.03
2018-04-19T06:31:10.481Z,23.53
2018-04-19T06:33:38.591Z,23.20
2018-04-19T06:36:06.741Z,23.97
2018-04-19T06:38:34.824Z,22.83
2018-04-19T06:41:02.932Z,24.50
2018-04-19T06:43:31.081Z,23.47
2018-04-19T06:45:59.195Z,22.70
2018-04-19T06:48:28.182Z,22.93
2018-04-19T06:50:56.280Z,21.63
2018-04-19T06:53:24.383Z,21.80
2018-04-19T06:55:52.570Z,23.07
2018-04-19T06:58:20.632Z,22.70
2018-04-19T07:00:48.759Z,20.80
2018-04-19T07:03:17.093Z,21.63
2018-04-19T07:05:45.188Z,21.80
2018-04-19T07:08:13.299Z,20.57
2018-04-19T07:10:41.421Z,20.97
2018-04-19T07:13:11.710Z,20.47
2018-04-19T07:15:39.819Z,21.23
2018-04-19T07:18:07.956Z,20.77
2018-04-19T07:20:36.053Z,20.63
2018-04-19T07:32:49.159Z,20.07
2018-04-19T07:35:17.251Z,18.97
2018-04-19T07:37:46.315Z,19.17
2018-04-19T07:40:14.694Z,19.77
2018-04-19T07:55:42.795Z,19.70
2018-04-19T07:58:10.895Z,18.20
2018-04-19T08:00:38.987Z,19.73
2018-04-19T08:03:07.112Z,19.53
2018-04-19T08:05:35.212Z,18.37
2018-04-19T08:08:03.312Z,17.93
2018-04-19T08:10:31.414Z,17.63
2018-04-19T08:12:59.758Z,16.70
2018-04-19T08:15:28.029Z,16.57
2018-04-19T08:17:56.372Z,16.10
2018-04-19T08:20:24.980Z,16.27
2018-04-19T08:22:53.094Z,14.33
2018-04-19T08:25:21.220Z,13.50
2018-04-19T08:27:49.614Z,13.57
2018-04-19T08:30:19.272Z,12.77
2018-04-19T08:32:47.395Z,12.83
2018-04-19T08:35:15.487Z,12.47
2018-04-19T08:37:44.232Z,12.93
2018-04-19T08:40:12.336Z,12.57
2018-04-19T08:42:40.439Z,12.90
2018-04-19T08:45:08.543Z,14.67
2018-04-19T08:47:36.646Z,14.87
2018-04-19T08:50:05.111Z,13.33
2018-04-19T08:52:33.307Z,14.13
2018-04-19T08:55:01.415Z,14.13
2018-04-19T08:57:29.519Z,13.97
2018-04-19T08:59:57.637Z,14.33
2018-04-19T09:02:25.719Z,13.87
2018-04-19T09:04:54.164Z,13.57
2018-04-19T09:07:22.313Z,13.30
2018-04-19T09:09:50.415Z,13.20
2018-04-19T09:12:19.381Z,13.40
2018-04-19T09:14:47.534Z,13.87
2018-04-19T09:17:15.620Z,13.40
2018-04-19T09:19:43.709Z,13.30
2018-04-19T09:22:12.168Z,13.07
2018-04-19T09:24:40.252Z,12.80
2018-04-19T09:27:09.026Z,13.53
2018-04-19T09:29:42.074Z,13.90
2018-04-19T09:32:10.307Z,14.33
2018-04-19T09:34:38.642Z,14.93
2018-04-19T09:37:12.404Z,14.47
2018-04-19T09:39:42.004Z,14.30
2018-04-19T09:42:10.181Z,13.97
2018-04-19T09:44:38.340Z,14.07
2018-04-19T09:47:06.514Z,14.23
2018-04-19T09:49:34.628Z,15.67
2018-04-19T09:52:03.038Z,15.33
2018-04-19T09:54:31.135Z,14.60
2018-04-19T09:57:00.055Z,14.00
2018-04-19T09:59:28.139Z,14.90
2018-04-19T10:02:01.803Z,13.60
2018-04-19T10:04:29.894Z,14.03
2018-04-19T10:06:57.998Z,15.17
2018-04-19T10:09:26.110Z,15.23
2018-04-19T10:11:54.198Z,15.57
2018-04-19T10:14:22.341Z,14.20
2018-04-19T10:16:50.432Z,14.33
2018-04-19T10:19:18.552Z,14.67
2018-04-19T10:21:46.630Z,13.57
2018-04-19T10:24:15.669Z,13.80
2018-04-19T10:26:44.195Z,15.13
2018-04-19T10:29:12.391Z,14.40
2018-04-19T10:31:40.771Z,14.60
2018-04-19T10:34:08.858Z,14.00
2018-04-19T10:36:36.963Z,13.43
2018-04-19T10:39:05.798Z,12.90
2018-04-19T10:41:33.880Z,13.67
2018-04-19T10:44:02.022Z,13.53
2018-04-19T10:46:30.214Z,13.40
2018-04-19T10:48:58.290Z,13.97
2018-04-19T10:51:26.374Z,13.97
2018-04-19T10:53:54.651Z,12.00
2018-04-19T10:56:22.739Z,11.90
2018-04-19T10:58:51.016Z,11.33
2018-04-19T11:01:19.454Z,10.83
2018-04-19T11:03:47.526Z,10.83
2018-04-19T11:06:15.621Z,10.23
2018-04-19T11:08:43.776Z,9.67
2018-04-19T11:11:12.706Z,10.20
2018-04-19T11:13:40.801Z,8.70
2018-04-19T11:16:09.400Z,10.03
2018-04-19T11:18:38.168Z,10.20
2018-04-19T11:21:06.245Z,9.90
2018-04-19T11:23:34.347Z,9.83
2018-04-19T11:26:02.828Z,8.93
2018-04-19T11:28:30.971Z,8.77
2018-04-19T11:30:59.179Z,9.83
2018-04-19T11:33:28.192Z,10.13
2018-04-19T11:35:57.048Z,10.70
2018-04-19T11:38:25.131Z,10.47
2018-04-19T11:40:53.319Z,9.43
2018-04-19T11:43:21.616Z,9.93
2018-04-19T11:45:49.708Z,10.63
2018-04-19T11:48:18.339Z,10.53
2018-04-19T11:50:47.239Z,13.33
2018-04-19T11:53:15.366Z,13.83
2018-04-19T11:55:43.463Z,11.13
2018-04-19T11:58:11.825Z,13.20
2018-04-19T12:00:39.916Z,11.53
2018-04-19T12:03:08.420Z,12.37
2018-04-19T12:05:36.534Z,11.03
2018-04-19T12:08:04.630Z,12.37
2018-04-19T12:10:32.718Z,11.57
2018-04-19T12:13:00.832Z,10.27
2018-04-19T12:15:28.929Z,9.87
2018-04-19T12:17:57.026Z,10.37
2018-04-19T12:20:25.386Z,9.97
2018-04-19T12:22:53.489Z,10.50
2018-04-19T12:38:26.606Z,10.63
2018-04-19T12:40:54.760Z,11.33
2018-04-19T12:43:22.855Z,9.23
2018-04-19T12:45:51.971Z,10.33
2018-04-19T12:48:20.048Z,9.93
2018-04-19T13:00:38.156Z,10.97
2018-04-19T13:03:06.299Z,11.00
2018-04-19T13:05:35.298Z,12.10
2018-04-19T13:08:03.469Z,10.50
2018-04-19T13:10:32.403Z,11.23
2018-04-19T13:13:00.543Z,11.90
2018-04-19T13:15:28.835Z,11.13
2018-04-19T13:17:56.938Z,11.40
2018-04-19T13:20:25.059Z,10.27
2018-04-19T13:22:53.350Z,11.20
2018-04-19T13:25:21.456Z,10.50
2018-04-19T13:27:50.130Z,10.97
2018-04-19T13:30:18.242Z,10.40
2018-04-19T13:32:46.357Z,10.90
2018-04-19T13:35:15.330Z,10.83
2018-04-19T13:37:43.437Z,9.50
2018-04-19T13:40:11.551Z,10.80
2018-04-19T13:42:39.738Z,10.63
2018-04-19T13:45:07.848Z,10.90
2018-04-19T13:47:37.416Z,10.30
2018-04-19T13:50:05.503Z,8.93
2018-04-19T13:52:33.655Z,10.13
2018-04-19T13:55:01.907Z,9.57
2018-04-19T13:57:30.206Z,9.27
2018-04-19T13:59:58.420Z,8.23
2018-04-19T14:02:28.342Z,8.77
2018-04-19T14:04:56.437Z,9.57
2018-04-19T14:07:24.557Z,8.93
2018-04-19T14:09:53.272Z,8.83
2018-04-19T14:12:21.719Z,8.73
2018-04-19T14:14:55.353Z,9.33
2018-04-19T14:17:23.817Z,8.67
2018-04-19T14:19:52.680Z,9.07
2018-04-19T14:22:21.120Z,8.43
2018-04-19T14:24:49.171Z,7.97
2018-04-19T14:27:17.286Z,7.50
2018-04-19T14:29:45.754Z,8.30
2018-04-19T14:32:13.895Z,7.87
2018-04-19T14:34:42.004Z,7.47
2018-04-19T14:37:10.203Z,8.00
2018-04-19T14:39:38.320Z,7.03
2018-04-19T14:42:06.395Z,5.90
2018-04-19T14:44:34.501Z,6.87
2018-04-19T14:47:02.588Z,6.77
2018-04-19T14:49:30.740Z,6.60
2018-04-19T14:51:58.833Z,6.80
2018-04-19T14:54:26.921Z,6.00
2018-04-19T14:56:55.244Z,6.13
2018-04-19T14:59:23.332Z,5.43
2018-04-19T15:01:52.427Z,5.40
2018-04-19T15:04:20.488Z,5.13
2018-04-19T15:06:48.568Z,5.07
2018-04-19T15:09:16.712Z,5.30
2018-04-19T15:11:44.764Z,4.97
2018-04-19T15:14:12.835Z,5.17
2018-04-19T15:16:41.233Z,4.60
2018-04-19T15:19:09.300Z,4.27
2018-04-19T15:21:37.519Z,4.63
2018-04-19T15:24:05.597Z,3.97
2018-04-19T15:26:38.676Z,4.27
2018-04-19T15:29:06.755Z,4.17
2018-04-19T15:31:34.831Z,4.70
2018-04-19T15:34:02.987Z,4.30
2018-04-19T15:36:32.715Z,4.50
2018-04-19T15:39:01.132Z,4.87
2018-04-19T15:41:29.727Z,4.70
2018-04-19T15:43:58.185Z,4.93
2018-04-19T15:46:26.248Z,5.10
2018-04-19T15:48:56.238Z,5.13
2018-04-19T15:51:25.271Z,4.67
2018-04-19T15:53:53.320Z,4.70
2018-04-19T15:56:21.754Z,4.40
2018-04-19T15:58:49.860Z,4.60
2018-04-19T16:01:17.903Z,4.90
2018-04-19T16:03:45.983Z,4.90
2018-04-19T16:06:19.633Z,6.27
2018-04-19T16:08:53.190Z,24.03
2018-04-19T16:11:21.337Z,23.53
2018-04-19T16:13:49.411Z,24.27
2018-04-19T16:16:17.497Z,25.97
2018-04-19T16:18:45.604Z,25.07
2018-04-19T16:21:14.444Z,26.93
2018-04-19T16:23:42.550Z,26.83
2018-04-19T16:26:11.623Z,28.43
2018-04-19T16:28:39.717Z,27.07
2018-04-19T16:31:07.815Z,27.40
2018-04-19T16:33:35.931Z,27.40
2018-04-19T16:36:09.447Z,28.37
2018-04-19T16:38:38.404Z,26.20
2018-04-19T16:41:06.538Z,28.13
2018-04-19T16:43:35.078Z,28.17
2018-04-19T16:46:03.179Z,26.70
2018-04-19T16:48:31.600Z,30.37
2018-04-19T16:50:59.722Z,27.13
2018-04-19T16:53:27.815Z,29.27
2018-04-19T16:55:55.898Z,27.40
2018-04-19T16:58:23.986Z,27.10
2018-04-19T17:00:52.121Z,28.80
2018-04-19T17:03:20.239Z,27.23
2018-04-19T17:05:48.328Z,27.87
2018-04-19T17:08:16.468Z,27.77
2018-04-19T17:10:44.584Z,28.27
2018-04-19T17:13:12.741Z,27.53
2018-04-19T17:15:40.830Z,27.83
2018-04-19T17:18:08.974Z,28.10
2018-04-19T17:20:37.127Z,27.53
2018-04-19T17:23:05.199Z,27.70
2018-04-19T17:35:19.105Z,25.83
2018-04-19T17:37:47.228Z,24.77
2018-04-19T17:40:15.368Z,27.43
2018-04-19T17:42:45.091Z,25.63
2018-04-19T17:45:13.536Z,25.60
2018-04-19T17:47:41.785Z,25.37
2018-04-19T17:50:09.880Z,25.50
2018-04-19T17:52:39.304Z,28.87
2018-04-19T17:55:12.933Z,27.50
2018-04-19T17:57:41.035Z,27.67
2018-04-19T18:00:09.151Z,27.63
2018-04-19T18:02:37.244Z,27.90
2018-04-19T18:05:10.292Z,27.47
2018-04-19T18:07:38.654Z,26.93
2018-04-19T18:10:06.747Z,29.73
2018-04-19T18:12:34.875Z,28.33
2018-04-19T18:15:02.993Z,27.63
2018-04-19T18:20:06.691Z,27.37
2018-04-19T18:22:34.784Z,29.87
2018-04-19T18:25:04.165Z,28.63
2018-04-19T18:27:32.643Z,30.17
2018-04-19T18:30:00.712Z,29.40
2018-04-19T18:32:28.807Z,30.20
2018-04-19T18:34:56.924Z,30.10
2018-04-19T18:37:25.017Z,27.67
2018-04-19T18:39:53.120Z,30.43
2018-04-19T18:42:21.948Z,29.03
2018-04-19T18:44:50.851Z,29.67
2018-04-19T18:47:18.951Z,29.70
2018-04-19T18:49:47.056Z,29.17
2018-04-19T18:52:15.182Z,29.07
2018-04-19T18:54:43.273Z,30.03
2018-04-19T18:57:11.718Z,29.20
2018-04-19T18:59:39.868Z,30.87
2018-04-19T19:02:08.024Z,28.50
2018-04-19T19:04:36.871Z,28.90
2018-04-19T19:07:04.948Z,31.27
2018-04-19T19:09:33.059Z,29.73
2018-04-19T19:12:01.170Z,29.97
2018-04-19T19:14:29.253Z,28.30
2018-04-19T19:16:57.357Z,30.03
2018-04-19T19:19:37.257Z,30.23
2018-04-19T19:22:05.373Z,30.27
2018-04-19T19:24:34.214Z,30.83
2018-04-19T19:27:02.510Z,30.83
2018-04-19T19:29:30.578Z,30.43
2018-04-19T19:31:58.677Z,31.07
2018-04-19T19:34:26.782Z,31.03
2018-04-19T19:36:54.879Z,32.60
2018-04-19T19:39:24.123Z,31.93
2018-04-19T19:41:52.241Z,31.07
2018-04-19T19:44:20.325Z,32.13
2018-04-19T19:46:48.406Z,32.67
2018-04-19T19:49:17.501Z,33.40
2018-04-19T19:51:50.847Z,32.33
2018-04-19T19:54:19.023Z,33.60
2018-04-19T19:56:47.449Z,32.37
2018-04-19T19:59:15.512Z,31.87
2018-04-19T20:01:43.877Z,32.70
2018-04-19T20:04:12.363Z,31.93
2018-04-19T20:06:40.439Z,31.47
2018-04-19T20:09:09.207Z,32.20
2018-04-19T20:11:37.296Z,32.10
2018-04-19T20:14:06.660Z,32.10
2018-04-19T20:16:34.724Z,34.37
2018-04-19T20:19:02.840Z,31.70
2018-04-19T20:21:30.963Z,33.37
2018-04-19T20:23:59.108Z,32.13
2018-04-19T20:26:28.569Z,34.50
2018-04-19T20:28:56.674Z,33.87
2018-04-19T20:31:24.760Z,32.57
2018-04-19T20:33:53.003Z,33.40
2018-04-19T20:36:21.923Z,31.67
2018-04-19T20:38:50.024Z,33.80
2018-04-19T20:41:18.152Z,33.60
2018-04-19T20:43:46.963Z,33.10
2018-04-19T20:46:15.771Z,32.77
2018-04-19T20:48:43.878Z,31.53
2018-04-19T21:04:12.020Z,31.53
2018-04-19T21:06:40.114Z,32.20
2018-04-19T21:09:08.999Z,33.17
2018-04-19T21:11:37.119Z,32.43
2018-04-19T21:14:05.213Z,33.60
2018-04-19T21:16:33.300Z,33.57
2018-04-19T21:19:01.410Z,33.37
2018-04-19T21:21:29.654Z,34.23
2018-04-19T21:23:57.757Z,33.97
2018-04-19T21:26:25.831Z,35.80
2018-04-19T21:28:53.919Z,36.17
2018-04-19T21:31:22.766Z,36.80
2018-04-19T21:33:50.855Z,35.93
2018-04-19T21:36:19.714Z,35.40
2018-04-19T21:38:47.826Z,35.83
2018-04-19T21:41:15.948Z,34.33
2018-04-19T21:56:46.120Z,36.37
2018-04-19T21:59:14.212Z,33.50
2018-04-19T22:14:42.848Z,32.87
2018-04-19T22:17:10.948Z,33.67
2018-04-19T22:29:29.373Z,32.30
2018-04-19T22:31:57.448Z,31.90
2018-04-19T22:34:25.547Z,32.53
2018-04-19T22:36:53.672Z,34.27
2018-04-19T22:39:21.910Z,33.53
2018-04-19T22:41:50.008Z,32.27
2018-04-19T22:44:18.146Z,32.70
2018-04-19T22:46:46.262Z,33.57
2018-04-19T22:49:14.367Z,34.37
2018-04-19T22:51:43.519Z,34.80
2018-04-19T22:54:11.619Z,33.60
2018-04-19T22:56:39.702Z,34.33
2018-04-19T22:59:13.446Z,33.13
2018-04-19T23:01:47.096Z,32.10
2018-04-19T23:04:15.263Z,33.07
2018-04-19T23:06:43.356Z,32.80
2018-04-19T23:09:11.507Z,32.60
2018-04-19T23:11:39.632Z,33.10
2018-04-19T23:14:08.399Z,33.17
2018-04-19T23:16:37.298Z,33.23
2018-04-19T23:19:05.447Z,33.53
2018-04-19T23:21:33.626Z,33.60
2018-04-19T23:24:01.803Z,33.93
2018-04-19T23:26:29.902Z,34.83
2018-04-19T23:28:59.142Z,34.00
2018-04-19T23:31:27.258Z,33.47
2018-04-19T23:33:56.238Z,31.27
2018-04-19T23:36:25.142Z,33.80
2018-04-19T23:38:53.250Z,31.67
2018-04-19T23:41:21.975Z,33.70
2018-04-19T23:43:50.092Z,33.63
2018-04-19T23:46:18.482Z,33.20
2018-04-19T23:48:46.576Z,32.17
2018-04-19T23:51:14.673Z,33.80
2018-04-19T23:53:42.770Z,32.20
2018-04-19T23:56:10.893Z,32.80
2018-04-19T23:58:39.076Z,34.43
